createdAt,value
2023-03-25T00:00:59.185Z,89.04
2023-03-25T00:03:29.039Z,87.25
2023-03-25T00:05:59.082Z,84.58
2023-03-25T00:08:28.044Z,84.97
2023-03-25T00:10:58.971Z,83.53
2023-03-25T00:13:27.897Z,83.99
2023-03-25T00:15:59.746Z,83.93
2023-03-25T00:18:34.999Z,85.97
2023-03-25T00:21:04.884Z,85.13
2023-03-25T00:23:33.437Z,84.18
2023-03-25T00:26:04.506Z,84.02
2023-03-25T00:28:36.210Z,84.36
2023-03-25T00:31:08.129Z,84.28
2023-03-25T00:33:36.825Z,84.00
2023-03-25T00:36:05.944Z,84.05
2023-03-25T00:38:36.635Z,84.09
2023-03-25T00:41:26.824Z,84.45
2023-03-25T00:43:56.902Z,84.77
2023-03-25T00:46:28.021Z,85.25
2023-03-25T00:48:57.289Z,85.06
2023-03-25T00:51:27.231Z,85.47
2023-03-25T00:53:57.114Z,85.72
2023-03-25T00:56:25.788Z,84.88
2023-03-25T00:58:54.125Z,87.10
2023-03-25T01:01:28.358Z,88.10
2023-03-25T01:04:01.172Z,89.77
2023-03-25T01:06:34.386Z,90.08
2023-03-25T01:09:05.994Z,90.08
2023-03-25T01:11:36.286Z,90.52
2023-03-25T01:14:06.248Z,90.17
2023-03-25T01:16:34.893Z,90.77
2023-03-25T01:19:02.912Z,90.20
2023-03-25T01:21:31.115Z,89.96
2023-03-25T01:23:59.015Z,89.29
2023-03-25T01:26:27.166Z,88.54
2023-03-25T01:28:55.416Z,87.81
2023-03-25T01:31:31.355Z,87.43
2023-03-25T01:33:59.747Z,86.96
2023-03-25T01:36:30.744Z,86.62
2023-03-25T01:39:00.971Z,86.73
2023-03-25T01:41:42.352Z,85.98
2023-03-25T01:44:19.764Z,86.00
2023-03-25T01:46:50.789Z,85.65
2023-03-25T01:49:24.957Z,85.29
2023-03-25T01:51:57.982Z,85.59
2023-03-25T01:54:26.200Z,85.38
2023-03-25T01:56:55.568Z,85.12
2023-03-25T01:59:27.648Z,85.25
2023-03-25T02:01:58.248Z,84.84
2023-03-25T02:04:40.380Z,85.00
2023-03-25T02:07:12.789Z,84.53
2023-03-25T02:09:40.765Z,84.94
2023-03-25T02:12:08.969Z,84.31
2023-03-25T02:14:38.988Z,84.52
2023-03-25T02:17:32.504Z,84.58
2023-03-25T02:20:09.482Z,84.51
2023-03-25T02:23:08.964Z,84.49
2023-03-25T02:25:57.579Z,83.82
2023-03-25T02:28:49.044Z,83.79
2023-03-25T02:31:19.817Z,83.95
2023-03-25T02:33:52.330Z,83.81
2023-03-25T02:37:08.102Z,83.35
2023-03-25T02:40:20.762Z,82.85
2023-03-25T02:43:15.312Z,83.11
2023-03-25T02:45:51.755Z,82.91
2023-03-25T02:48:25.174Z,83.04
2023-03-25T02:50:58.451Z,83.17
2023-03-25T02:53:34.796Z,83.26
2023-03-25T02:56:09.989Z,83.21
2023-03-25T02:58:40.684Z,83.24
2023-03-25T03:01:11.393Z,83.17
2023-03-25T03:03:39.392Z,83.38
2023-03-25T03:06:09.119Z,83.22
2023-03-25T03:08:52.878Z,83.02
2023-03-25T03:11:38.244Z,83.12
2023-03-25T03:14:24.615Z,82.85
2023-03-25T03:17:13.610Z,82.68
2023-03-25T03:19:48.532Z,82.35
2023-03-25T03:22:37.843Z,82.52
2023-03-25T03:25:30.677Z,82.35
2023-03-25T03:28:07.069Z,82.40
2023-03-25T03:30:40.925Z,82.19
2023-03-25T03:33:30.121Z,82.94
2023-03-25T03:36:06.544Z,84.41
2023-03-25T03:38:39.855Z,85.43
2023-03-25T03:41:11.947Z,85.99
2023-03-25T03:44:04.117Z,88.90
2023-03-25T03:46:34.768Z,89.79
2023-03-25T03:49:06.372Z,89.87
2023-03-25T03:51:40.048Z,90.15
2023-03-25T03:54:15.076Z,90.19
2023-03-25T03:56:47.791Z,90.34
2023-03-25T03:59:22.475Z,90.21
2023-03-25T04:01:59.425Z,90.00
2023-03-25T04:04:30.964Z,90.03
2023-03-25T04:07:05.980Z,90.33
2023-03-25T04:09:43.233Z,90.14
2023-03-25T04:12:21.960Z,91.09
2023-03-25T04:14:49.993Z,90.76
2023-03-25T04:17:18.832Z,90.70
2023-03-25T04:19:50.467Z,90.41
2023-03-25T04:22:19.787Z,89.98
2023-03-25T04:24:51.277Z,90.32
2023-03-25T04:27:20.265Z,89.99
2023-03-25T04:29:49.097Z,90.15
2023-03-25T04:32:17.544Z,90.35
2023-03-25T04:34:45.461Z,90.25
2023-03-25T04:37:13.385Z,90.22
2023-03-25T04:39:41.857Z,90.36
2023-03-25T04:42:15.117Z,90.78
2023-03-25T04:44:42.970Z,90.71
2023-03-25T04:47:16.112Z,90.75
2023-03-25T04:49:46.358Z,90.59
2023-03-25T04:52:14.307Z,90.71
2023-03-25T04:54:42.248Z,90.40
2023-03-25T04:57:10.359Z,90.10
2023-03-25T04:59:38.569Z,89.86
2023-03-25T05:02:08.128Z,89.82
2023-03-25T05:04:36.133Z,89.91
2023-03-25T05:07:04.221Z,89.70
2023-03-25T05:09:32.988Z,90.06
2023-03-25T05:12:00.863Z,89.66
2023-03-25T05:14:28.792Z,89.62
2023-03-25T05:16:58.697Z,89.63
2023-03-25T05:19:26.892Z,89.48
2023-03-25T05:21:57.433Z,89.75
2023-03-25T05:24:25.416Z,89.71
2023-03-25T05:26:53.241Z,89.37
2023-03-25T05:29:21.187Z,89.43
2023-03-25T05:31:49.912Z,89.15
2023-03-25T05:34:18.285Z,88.98
2023-03-25T05:36:46.384Z,89.10
2023-03-25T05:39:14.401Z,88.97
2023-03-25T05:41:42.325Z,89.19
2023-03-25T05:44:11.586Z,89.02
2023-03-25T05:46:39.465Z,88.95
2023-03-25T05:49:07.388Z,88.99
2023-03-25T05:51:38.744Z,89.26
2023-03-25T05:54:12.234Z,89.28
2023-03-25T05:56:40.991Z,89.16
2023-03-25T05:59:09.595Z,89.23
2023-03-25T06:01:43.229Z,89.17
2023-03-25T06:04:11.272Z,88.95
2023-03-25T06:06:39.145Z,88.98
2023-03-25T06:09:08.350Z,88.84
2023-03-25T06:11:39.345Z,88.88
2023-03-25T06:14:07.855Z,88.59
2023-03-25T06:16:36.762Z,88.73
2023-03-25T06:19:04.886Z,88.82
2023-03-25T06:21:34.865Z,88.84
2023-03-25T06:24:03.822Z,89.21
2023-03-25T06:26:31.879Z,89.17
2023-03-25T06:28:59.821Z,89.63
2023-03-25T06:31:28.229Z,89.39
2023-03-25T06:33:57.348Z,89.40
2023-03-25T06:36:26.888Z,89.47
2023-03-25T06:38:55.300Z,89.42
2023-03-25T06:41:26.384Z,89.55
2023-03-25T06:43:54.722Z,89.81
2023-03-25T06:46:22.659Z,89.63
2023-03-25T06:48:50.722Z,89.83
2023-03-25T06:51:18.822Z,89.49
2023-03-25T06:53:46.938Z,89.42
2023-03-25T06:56:15.693Z,89.45
2023-03-25T06:58:44.877Z,89.23
2023-03-25T07:01:12.823Z,89.25
2023-03-25T07:03:40.725Z,88.47
2023-03-25T07:06:09.114Z,88.71
2023-03-25T07:08:37.140Z,88.82
2023-03-25T07:11:09.118Z,88.48
2023-03-25T07:13:37.119Z,88.09
2023-03-25T07:16:05.444Z,87.57
2023-03-25T07:18:33.740Z,87.38
2023-03-25T07:21:01.672Z,86.81
2023-03-25T07:23:29.606Z,87.22
2023-03-25T07:25:58.315Z,87.03
2023-03-25T07:28:26.154Z,86.72
2023-03-25T07:30:54.109Z,84.83
2023-03-25T07:33:22.217Z,85.50
2023-03-25T07:35:50.411Z,85.12
2023-03-25T07:38:19.959Z,84.28
2023-03-25T07:40:50.376Z,82.58
2023-03-25T07:43:18.646Z,83.41
2023-03-25T07:45:46.673Z,82.08
2023-03-25T07:48:17.959Z,81.78
2023-03-25T07:50:47.080Z,82.03
2023-03-25T07:53:15.046Z,83.75
2023-03-25T07:55:42.976Z,81.92
2023-03-25T07:58:10.895Z,77.96
2023-03-25T08:00:39.315Z,75.64
2023-03-25T08:03:07.950Z,74.29
2023-03-25T08:05:36.076Z,71.58
2023-03-25T08:08:07.081Z,72.93
2023-03-25T08:10:36.425Z,72.05
2023-03-25T08:13:04.439Z,71.23
2023-03-25T08:15:32.404Z,72.03
2023-03-25T08:18:00.353Z,72.72
2023-03-25T08:20:28.435Z,72.97
2023-03-25T08:22:58.681Z,71.89
2023-03-25T08:25:27.228Z,72.90
2023-03-25T08:27:55.361Z,73.30
2023-03-25T08:30:23.977Z,73.35
2023-03-25T08:32:55.858Z,72.72
2023-03-25T08:35:25.393Z,72.27
2023-03-25T08:37:53.292Z,71.84
2023-03-25T08:40:21.248Z,72.00
2023-03-25T08:42:49.176Z,74.14
2023-03-25T08:45:17.132Z,74.82
2023-03-25T08:47:45.264Z,75.66
2023-03-25T08:50:13.805Z,76.81
2023-03-25T08:52:42.539Z,77.27
2023-03-25T08:55:12.644Z,78.21
2023-03-25T08:57:40.585Z,80.21
2023-03-25T09:00:15.550Z,81.09
2023-03-25T09:02:44.913Z,82.56
2023-03-25T09:05:14.002Z,83.03
2023-03-25T09:07:42.129Z,83.58
2023-03-25T09:10:10.756Z,84.71
2023-03-25T09:12:38.637Z,85.52
2023-03-25T09:15:07.641Z,85.95
2023-03-25T09:17:35.570Z,87.06
2023-03-25T09:20:03.564Z,90.09
2023-03-25T09:22:31.570Z,90.22
2023-03-25T09:24:59.523Z,90.64
2023-03-25T09:27:27.502Z,89.64
2023-03-25T09:29:55.483Z,90.67
2023-03-25T09:32:23.407Z,90.56
2023-03-25T09:34:51.516Z,90.62
2023-03-25T09:37:19.919Z,90.75
2023-03-25T09:39:48.009Z,90.21
2023-03-25T09:42:35.311Z,90.02
2023-03-25T09:45:12.162Z,91.38
2023-03-25T09:47:48.831Z,90.94
2023-03-25T09:50:18.166Z,91.57
2023-03-25T09:53:04.007Z,91.95
2023-03-25T09:55:36.407Z,91.89
2023-03-25T09:58:22.254Z,92.63
2023-03-25T10:01:27.981Z,93.45
2023-03-25T10:03:59.988Z,93.08
2023-03-25T10:06:28.152Z,94.04
2023-03-25T10:09:29.059Z,92.75
2023-03-25T10:12:32.491Z,92.52
2023-03-25T10:15:23.130Z,96.25
2023-03-25T10:18:12.603Z,95.57
2023-03-25T10:20:40.613Z,95.58
2023-03-25T10:23:22.681Z,98.60
2023-03-25T10:25:57.364Z,98.26
2023-03-25T10:28:32.594Z,95.69
2023-03-25T10:31:01.526Z,96.08
2023-03-25T10:33:38.987Z,95.92
2023-03-25T10:36:13.090Z,96.22
2023-03-25T10:38:43.311Z,96.69
2023-03-25T10:41:32.187Z,96.93
2023-03-25T10:44:00.146Z,97.46
2023-03-25T10:46:48.272Z,98.61
2023-03-25T10:49:20.075Z,98.92
2023-03-25T10:51:50.849Z,99.97
2023-03-25T10:54:20.016Z,100.00
2023-03-25T10:56:53.334Z,100.00
2023-03-25T10:59:46.649Z,100.00
2023-03-25T11:02:20.781Z,100.00
2023-03-25T11:04:52.465Z,100.00
2023-03-25T11:07:22.371Z,100.00
2023-03-25T11:09:53.104Z,100.00
2023-03-25T11:12:33.317Z,100.00
2023-03-25T11:15:19.930Z,100.00
2023-03-25T11:17:49.556Z,100.00
2023-03-25T11:20:29.637Z,100.00
2023-03-25T11:23:05.444Z,100.00
2023-03-25T11:25:41.190Z,100.00
2023-03-25T11:28:40.898Z,100.00
2023-03-25T11:31:09.358Z,100.00
2023-03-25T11:33:40.752Z,100.00
2023-03-25T11:36:21.722Z,100.00
2023-03-25T11:38:58.071Z,100.00
2023-03-25T11:41:30.868Z,100.00
2023-03-25T11:43:59.062Z,100.00
2023-03-25T11:46:27.470Z,100.00
2023-03-25T11:48:55.608Z,100.00
2023-03-25T11:51:27.333Z,100.00
2023-03-25T11:54:01.516Z,100.00
2023-03-25T11:56:41.466Z,100.00
2023-03-25T11:59:19.572Z,100.00
2023-03-25T12:01:49.671Z,100.00
2023-03-25T12:04:23.900Z,100.00
2023-03-25T12:07:07.510Z,100.00
2023-03-25T12:09:36.101Z,99.38
2023-03-25T12:12:12.847Z,97.87
2023-03-25T12:15:02.307Z,96.43
2023-03-25T12:17:36.140Z,97.21
2023-03-25T12:20:15.308Z,96.54
2023-03-25T12:22:46.024Z,94.18
2023-03-25T12:25:19.784Z,94.53
2023-03-25T12:28:01.087Z,93.40
2023-03-25T12:30:56.546Z,94.42
2023-03-25T12:33:33.812Z,93.77
2023-03-25T12:36:31.063Z,92.85
2023-03-25T12:39:18.579Z,92.30
2023-03-25T12:41:57.802Z,92.42
2023-03-25T12:44:43.939Z,89.79
2023-03-25T12:47:24.765Z,90.51
2023-03-25T12:50:06.356Z,90.29
2023-03-25T12:52:52.551Z,89.38
2023-03-25T12:55:45.386Z,89.50
2023-03-25T12:58:25.298Z,87.71
2023-03-25T13:01:18.912Z,87.32
2023-03-25T13:04:12.376Z,87.61
2023-03-25T13:07:12.914Z,85.51
2023-03-25T13:10:02.019Z,85.68
2023-03-25T13:12:37.564Z,84.66
2023-03-25T13:15:21.805Z,81.40
2023-03-25T13:18:16.255Z,81.20
2023-03-25T13:20:50.965Z,80.71
2023-03-25T13:23:23.290Z,80.87
2023-03-25T13:26:03.706Z,81.20
2023-03-25T13:28:42.280Z,81.48
2023-03-25T13:31:28.606Z,78.76
2023-03-25T13:34:22.035Z,77.62
2023-03-25T13:37:19.975Z,78.48
2023-03-25T13:40:14.206Z,76.80
2023-03-25T13:43:09.146Z,77.17
2023-03-25T13:45:53.599Z,77.05
2023-03-25T13:48:29.998Z,73.46
2023-03-25T13:51:04.164Z,75.15
2023-03-25T13:53:44.296Z,74.58
2023-03-25T13:56:31.063Z,73.55
2023-03-25T13:59:12.998Z,74.15
2023-03-25T14:01:54.792Z,73.15
2023-03-25T14:04:48.657Z,71.64
2023-03-25T14:07:31.440Z,72.91
2023-03-25T14:10:51.385Z,70.93
2023-03-25T14:13:35.186Z,72.79
2023-03-25T14:16:10.444Z,71.61
2023-03-25T14:18:54.299Z,71.90
2023-03-25T14:21:22.546Z,72.17
2023-03-25T14:24:02.093Z,69.06
2023-03-25T14:26:30.469Z,70.28
2023-03-25T14:28:59.102Z,68.28
2023-03-25T14:31:32.398Z,68.92
2023-03-25T14:34:05.865Z,68.75
2023-03-25T14:36:42.482Z,68.55
2023-03-25T14:39:33.437Z,66.55
2023-03-25T14:42:12.825Z,64.42
2023-03-25T14:44:50.869Z,63.80
2023-03-25T14:47:28.237Z,64.59
2023-03-25T14:50:17.636Z,65.75
2023-03-25T14:52:49.513Z,63.92
2023-03-25T14:55:23.622Z,62.43
2023-03-25T14:57:53.666Z,62.67
2023-03-25T15:00:29.552Z,61.97
2023-03-25T15:03:13.939Z,62.40
2023-03-25T15:05:43.765Z,62.10
2023-03-25T15:08:15.826Z,61.28
2023-03-25T15:10:49.432Z,60.84
2023-03-25T15:13:17.523Z,61.08
2023-03-25T15:15:48.720Z,62.53
2023-03-25T15:18:42.046Z,61.76
2023-03-25T15:21:09.936Z,65.51
2023-03-25T15:23:49.292Z,69.88
2023-03-25T15:26:42.978Z,72.09
2023-03-25T15:29:39.262Z,76.75
2023-03-25T15:32:16.464Z,83.88
2023-03-25T15:35:17.010Z,81.27
2023-03-25T15:37:50.769Z,81.30
2023-03-25T15:40:36.281Z,80.32
2023-03-25T15:43:42.511Z,81.99
2023-03-25T15:46:49.154Z,84.48
2023-03-25T15:49:35.477Z,82.08
2023-03-25T15:52:26.081Z,82.28
2023-03-25T15:55:02.108Z,81.86
2023-03-25T15:57:50.926Z,82.03
2023-03-25T16:00:26.099Z,82.43
2023-03-25T16:02:59.932Z,82.71
2023-03-25T16:05:28.818Z,83.18
2023-03-25T16:08:01.222Z,83.07
2023-03-25T16:10:34.440Z,85.29
2023-03-25T16:13:05.440Z,83.27
2023-03-25T16:15:35.856Z,83.08
2023-03-25T16:18:07.713Z,82.07
2023-03-25T16:20:37.865Z,78.46
2023-03-25T16:23:08.982Z,75.45
2023-03-25T16:25:41.435Z,75.71
2023-03-25T16:28:16.952Z,77.23
2023-03-25T16:30:50.732Z,78.75
2023-03-25T16:33:23.074Z,77.94
2023-03-25T16:35:59.509Z,78.39
2023-03-25T16:38:27.825Z,78.90
2023-03-25T16:41:17.869Z,78.94
2023-03-25T16:43:46.223Z,79.56
2023-03-25T16:46:17.138Z,79.91
2023-03-25T16:48:53.291Z,80.68
2023-03-25T16:51:36.692Z,80.61
2023-03-25T16:54:11.544Z,80.92
2023-03-25T16:56:40.441Z,81.00
2023-03-25T16:59:17.893Z,81.14
2023-03-25T17:01:53.705Z,81.85
2023-03-25T17:04:27.372Z,81.54
2023-03-25T17:06:59.100Z,81.63
2023-03-25T17:09:35.338Z,81.55
2023-03-25T17:12:08.302Z,81.84
2023-03-25T17:14:40.569Z,82.22
2023-03-25T17:17:43.172Z,82.09
2023-03-25T17:20:20.290Z,82.33
2023-03-25T17:23:01.874Z,82.72
2023-03-25T17:25:51.537Z,82.34
2023-03-25T17:28:42.684Z,82.23
2023-03-25T17:31:20.337Z,83.11
2023-03-25T17:33:51.027Z,82.30
2023-03-25T17:36:20.715Z,82.37
2023-03-25T17:38:52.940Z,82.13
2023-03-25T17:41:22.384Z,82.27
2023-03-25T17:43:54.488Z,81.93
2023-03-25T17:46:25.676Z,81.92
2023-03-25T17:48:56.438Z,81.84
2023-03-25T17:51:27.106Z,81.71
2023-03-25T17:53:55.755Z,81.58
2023-03-25T17:56:26.842Z,81.35
2023-03-25T17:59:19.464Z,81.31
2023-03-25T18:01:48.896Z,80.57
2023-03-25T18:04:18.175Z,81.00
2023-03-25T18:06:46.236Z,80.97
2023-03-25T18:09:23.265Z,80.72
2023-03-25T18:11:54.211Z,80.40
2023-03-25T18:14:23.367Z,80.20
2023-03-25T18:16:52.159Z,79.87
2023-03-25T18:19:26.109Z,80.29
2023-03-25T18:21:55.548Z,80.60
2023-03-25T18:24:23.620Z,80.31
2023-03-25T18:26:51.585Z,80.53
2023-03-25T18:29:31.365Z,80.38
2023-03-25T18:31:59.712Z,80.50
2023-03-25T18:34:28.989Z,80.62
2023-03-25T18:36:59.225Z,80.61
2023-03-25T18:39:28.972Z,80.82
2023-03-25T18:41:56.919Z,80.71
2023-03-25T18:44:25.143Z,80.67
2023-03-25T18:46:53.172Z,80.81
2023-03-25T18:49:21.334Z,80.89
2023-03-25T18:51:52.700Z,80.95
2023-03-25T18:54:20.675Z,81.19
2023-03-25T18:56:48.573Z,81.39
2023-03-25T18:59:22.896Z,81.56
2023-03-25T19:01:50.876Z,81.85
2023-03-25T19:04:19.494Z,82.11
2023-03-25T19:06:47.927Z,82.07
2023-03-25T19:09:20.021Z,81.78
2023-03-25T19:11:48.674Z,81.97
2023-03-25T19:14:16.895Z,82.21
2023-03-25T19:16:57.306Z,82.07
2023-03-25T19:19:31.431Z,82.23
2023-03-25T19:21:59.525Z,81.98
2023-03-25T19:24:27.563Z,82.02
2023-03-25T19:26:55.527Z,81.94
2023-03-25T19:29:23.444Z,81.92
2023-03-25T19:31:51.301Z,82.08
2023-03-25T19:34:19.349Z,82.09
2023-03-25T19:36:48.191Z,82.21
2023-03-25T19:39:17.283Z,82.81
2023-03-25T19:41:46.098Z,83.13
2023-03-25T19:44:15.693Z,83.40
2023-03-25T19:46:43.685Z,83.58
2023-03-25T19:49:12.104Z,83.98
2023-03-25T19:51:41.323Z,83.70
2023-03-25T19:54:14.793Z,84.19
2023-03-25T19:56:43.608Z,83.80
2023-03-25T19:59:11.979Z,83.84
2023-03-25T20:01:40.005Z,84.04
2023-03-25T20:04:08.145Z,83.99
2023-03-25T20:06:36.045Z,83.51
2023-03-25T20:09:05.372Z,83.14
2023-03-25T20:11:34.071Z,82.84
2023-03-25T20:14:02.206Z,82.81
2023-03-25T20:16:32.135Z,82.46
2023-03-25T20:19:00.060Z,82.58
2023-03-25T20:21:27.937Z,81.99
2023-03-25T20:23:55.888Z,81.26
2023-03-25T20:26:23.887Z,81.58
2023-03-25T20:28:53.077Z,81.12
2023-03-25T20:31:23.566Z,79.39
2023-03-25T20:33:52.621Z,79.84
2023-03-25T20:36:21.513Z,79.23
2023-03-25T20:38:57.118Z,79.68
2023-03-25T20:41:26.261Z,79.56
2023-03-25T20:43:54.156Z,79.42
2023-03-25T20:46:25.090Z,79.22
2023-03-25T20:48:53.270Z,78.40
2023-03-25T20:51:21.235Z,79.25
2023-03-25T20:53:49.924Z,79.26
2023-03-25T20:56:18.201Z,79.03
2023-03-25T20:58:46.501Z,78.84
2023-03-25T21:01:16.631Z,79.01
2023-03-25T21:03:44.595Z,78.95
2023-03-25T21:06:22.857Z,79.11
2023-03-25T21:08:52.655Z,79.21
2023-03-25T21:11:20.535Z,78.97
2023-03-25T21:13:48.634Z,79.11
2023-03-25T21:16:16.661Z,79.10
2023-03-25T21:18:44.694Z,79.18
2023-03-25T21:21:12.654Z,79.10
2023-03-25T21:23:44.162Z,78.98
2023-03-25T21:26:13.087Z,79.11
2023-03-25T21:28:41.094Z,78.87
2023-03-25T21:31:11.504Z,79.00
2023-03-25T21:33:39.460Z,78.80
2023-03-25T21:36:10.113Z,78.40
2023-03-25T21:38:37.992Z,78.54
2023-03-25T21:41:07.991Z,78.51
2023-03-25T21:43:38.870Z,78.28
2023-03-25T21:46:08.275Z,78.39
2023-03-25T21:48:39.494Z,78.03
2023-03-25T21:51:15.852Z,78.22
2023-03-25T21:53:46.638Z,78.05
2023-03-25T21:56:18.629Z,78.13
2023-03-25T21:58:48.327Z,77.91
2023-03-25T22:01:20.871Z,78.35
2023-03-25T22:03:48.785Z,79.10
2023-03-25T22:06:19.940Z,79.13
2023-03-25T22:08:48.471Z,79.01
2023-03-25T22:11:21.973Z,78.74
2023-03-25T22:13:51.702Z,78.78
2023-03-25T22:16:22.024Z,79.36
2023-03-25T22:18:50.615Z,80.21
2023-03-25T22:21:24.021Z,80.78
2023-03-25T22:23:55.852Z,80.87
2023-03-25T22:26:25.193Z,81.44
2023-03-25T22:29:04.368Z,81.83
2023-03-25T22:31:34.875Z,81.98
2023-03-25T22:34:05.112Z,81.54
2023-03-25T22:36:34.798Z,81.88
2023-03-25T22:39:04.149Z,82.14
2023-03-25T22:41:32.498Z,82.46
2023-03-25T22:44:00.666Z,83.12
2023-03-25T22:46:28.747Z,83.26
2023-03-25T22:48:56.759Z,83.38
2023-03-25T22:51:24.632Z,83.19
2023-03-25T22:53:52.646Z,83.17
2023-03-25T22:56:21.468Z,83.10
2023-03-25T22:58:49.406Z,83.46
2023-03-25T23:01:25.119Z,83.15
2023-03-25T23:03:55.120Z,81.37
2023-03-25T23:06:23.527Z,80.82
2023-03-25T23:08:52.064Z,80.95
2023-03-25T23:11:26.744Z,80.92
2023-03-25T23:13:57.669Z,80.96
2023-03-25T23:16:28.020Z,81.39
2023-03-25T23:18:55.929Z,81.17
2023-03-25T23:21:27.015Z,81.91
2023-03-25T23:23:58.240Z,82.17
2023-03-25T23:26:35.609Z,82.60
2023-03-25T23:29:06.054Z,82.90
2023-03-25T23:31:35.971Z,83.03
2023-03-25T23:34:07.174Z,83.41
2023-03-25T23:36:39.907Z,83.86
2023-03-25T23:39:11.526Z,83.93
2023-03-25T23:41:39.696Z,84.30
2023-03-25T23:44:08.054Z,84.55
2023-03-25T23:46:36.210Z,84.62
2023-03-25T23:49:04.220Z,84.65
2023-03-25T23:51:38.422Z,84.50
2023-03-25T23:54:08.683Z,84.35
2023-03-25T23:56:37.445Z,84.60
2023-03-25T23:59:06.776Z,84.64
